Terminal Aerodrome Forecast
Issued by NWS

Home | Current Version | Previous Version | Text Only | Print | Product List | Glossary On
Versions: 1 2 3 4 5 6 7 8 9 10 11 12 13 14 15
000
FTUS43 KDTX 281137
TAFYIP
TAF
KYIP 281137Z 2812/2912 09004KT P6SM FEW060 SCT120 BKN200
     FM281500 15008KT P6SM BKN045 BKN150
     FM282200 17008KT P6SM BKN050
      TEMPO 2822/2902 3SM TSRA BKN028CB OVC050
     FM290200 27009KT 5SM BR BKN025
     FM290600 24006KT 6SM BR SCT018 BKN200=

USA.gov is the U.S. government's official web portal to all federal, state and local government web resources and services.